createdAt,value
2019-04-26T00:01:30.355Z,14.20
2019-04-26T00:03:58.409Z,14.20
2019-04-26T00:06:26.646Z,14.20
2019-04-26T00:08:58.907Z,14.10
2019-04-26T00:11:37.559Z,14.10
2019-04-26T00:14:07.306Z,14.00
2019-04-26T00:16:36.882Z,13.90
2019-04-26T00:19:04.908Z,13.90
2019-04-26T00:21:33.057Z,13.90
2019-04-26T00:24:01.291Z,13.90
2019-04-26T00:26:29.496Z,13.80
2019-04-26T00:28:57.398Z,13.80
2019-04-26T00:31:25.342Z,13.70
2019-04-26T00:33:53.287Z,13.70
2019-04-26T00:36:21.119Z,13.60
2019-04-26T00:38:48.993Z,13.60
2019-04-26T00:41:16.857Z,13.50
2019-04-26T00:43:44.796Z,13.50
2019-04-26T00:46:13.353Z,13.40
2019-04-26T00:48:41.743Z,13.40
2019-04-26T00:51:09.690Z,13.30
2019-04-26T00:53:39.109Z,13.30
2019-04-26T00:56:07.444Z,13.20
2019-04-26T00:58:35.455Z,13.10
2019-04-26T01:01:03.452Z,13.00
2019-04-26T01:03:31.318Z,12.90
2019-04-26T01:06:00.906Z,12.90
2019-04-26T01:08:28.831Z,12.90
2019-04-26T01:10:56.742Z,12.90
2019-04-26T01:13:24.796Z,12.90
2019-04-26T01:15:52.699Z,12.90
2019-04-26T01:18:20.611Z,12.90
2019-04-26T01:20:50.059Z,12.90
2019-04-26T01:23:20.844Z,12.90
2019-04-26T01:25:59.172Z,12.90
2019-04-26T01:28:31.615Z,12.80
2019-04-26T01:31:01.005Z,12.70
2019-04-26T01:33:29.762Z,12.70
2019-04-26T01:35:57.678Z,12.70
2019-04-26T01:38:25.743Z,12.60
2019-04-26T01:40:55.367Z,12.60
2019-04-26T01:43:32.798Z,12.60
2019-04-26T01:46:03.510Z,12.50
2019-04-26T01:48:48.194Z,12.40
2019-04-26T01:51:24.465Z,12.30
2019-04-26T01:53:52.418Z,12.20
2019-04-26T01:56:22.298Z,12.10
2019-04-26T01:58:51.439Z,12.00
2019-04-26T02:01:37.245Z,12.00
2019-04-26T02:04:05.231Z,12.00
2019-04-26T02:06:35.148Z,12.00
2019-04-26T02:09:04.362Z,12.00
2019-04-26T02:11:32.990Z,12.00
2019-04-26T02:14:00.917Z,12.00
2019-04-26T02:16:29.157Z,12.00
2019-04-26T02:18:57.083Z,12.00
2019-04-26T02:21:27.848Z,12.10
2019-04-26T02:24:03.059Z,12.10
2019-04-26T02:26:35.016Z,12.10
2019-04-26T02:29:10.424Z,12.10
2019-04-26T02:31:39.777Z,12.10
2019-04-26T02:34:07.986Z,12.10
2019-04-26T02:36:55.332Z,12.10
2019-04-26T02:39:19.778Z,12.00
2019-04-26T02:41:49.136Z,12.00
2019-04-26T02:44:21.696Z,12.00
2019-04-26T02:46:56.692Z,12.00
2019-04-26T02:49:28.838Z,12.00
2019-04-26T02:52:07.212Z,11.90
2019-04-26T02:54:45.217Z,11.90
2019-04-26T02:57:14.647Z,11.90
2019-04-26T02:59:42.969Z,11.90
2019-04-26T03:02:12.357Z,11.80
2019-04-26T03:04:41.502Z,11.80
2019-04-26T03:07:10.899Z,11.80
2019-04-26T03:09:40.307Z,11.80
2019-04-26T03:12:15.632Z,11.80
2019-04-26T03:14:52.307Z,11.70
2019-04-26T03:17:39.796Z,11.70
2019-04-26T03:20:16.224Z,11.70
2019-04-26T03:22:48.360Z,11.70
2019-04-26T03:25:26.726Z,11.70
2019-04-26T03:28:14.147Z,11.70
2019-04-26T03:30:58.432Z,11.60
2019-04-26T03:33:52.534Z,11.60
2019-04-26T03:36:37.071Z,11.50
2019-04-26T03:39:06.106Z,11.50
2019-04-26T03:41:38.580Z,11.50
2019-04-26T03:44:25.993Z,11.50
2019-04-26T03:46:55.392Z,11.50
2019-04-26T03:49:35.672Z,11.50
2019-04-26T03:52:04.773Z,11.50
2019-04-26T03:54:35.524Z,11.50
2019-04-26T03:57:21.905Z,11.50
2019-04-26T03:59:58.378Z,11.50
2019-04-26T04:02:29.424Z,11.50
2019-04-26T04:05:03.195Z,11.60
2019-04-26T04:07:39.233Z,11.50
2019-04-26T04:10:03.799Z,11.50
2019-04-26T04:12:43.932Z,11.50
2019-04-26T04:15:16.039Z,11.50
2019-04-26T04:17:48.278Z,11.50
2019-04-26T04:20:28.452Z,11.50
2019-04-26T04:22:57.921Z,11.40
2019-04-26T04:25:47.012Z,11.40
2019-04-26T04:28:19.429Z,11.30
2019-04-26T04:30:51.626Z,11.30
2019-04-26T04:33:30.208Z,11.30
2019-04-26T04:35:59.595Z,11.30
2019-04-26T04:38:33.412Z,11.30
2019-04-26T04:41:20.785Z,11.30
2019-04-26T04:43:57.673Z,11.30
2019-04-26T04:46:37.284Z,11.30
2019-04-26T04:49:11.334Z,11.30
2019-04-26T04:51:57.287Z,11.30
2019-04-26T04:54:29.799Z,11.30
2019-04-26T04:57:04.898Z,11.30
2019-04-26T04:59:37.084Z,11.40
2019-04-26T05:02:28.967Z,11.40
2019-04-26T05:05:09.005Z,11.50
2019-04-26T05:07:45.071Z,11.50
2019-04-26T05:10:14.716Z,11.50
2019-04-26T05:12:47.849Z,11.50
2019-04-26T05:15:21.861Z,11.50
2019-04-26T05:18:06.365Z,11.50
2019-04-26T05:20:45.951Z,11.60
2019-04-26T05:23:30.548Z,11.60
2019-04-26T05:26:30.953Z,11.70
2019-04-26T05:29:10.681Z,11.80
2019-04-26T05:31:52.772Z,11.90
2019-04-26T05:34:38.651Z,11.90
2019-04-26T05:37:08.058Z,12.00
2019-04-26T05:39:40.502Z,12.10
2019-04-26T05:42:26.458Z,12.20
2019-04-26T05:45:13.389Z,12.30
2019-04-26T05:48:05.352Z,12.30
2019-04-26T05:50:45.051Z,12.30
2019-04-26T05:53:16.099Z,12.20
2019-04-26T05:56:12.368Z,12.20
2019-04-26T05:59:01.182Z,12.20
2019-04-26T06:01:45.799Z,12.30
2019-04-26T06:04:22.593Z,12.30
2019-04-26T06:06:53.617Z,12.30
2019-04-26T06:09:30.365Z,12.30
2019-04-26T06:12:06.958Z,12.40
2019-04-26T06:14:52.951Z,12.50
2019-04-26T06:17:23.966Z,12.60
2019-04-26T06:20:03.950Z,12.80
2019-04-26T06:22:33.343Z,12.90
2019-04-26T06:25:20.558Z,13.00
2019-04-26T06:27:51.951Z,13.00
2019-04-26T06:30:23.198Z,13.00
2019-04-26T06:33:10.286Z,12.90
2019-04-26T06:35:40.146Z,12.70
2019-04-26T06:38:27.544Z,12.90
2019-04-26T06:41:00.201Z,13.00
2019-04-26T06:43:33.876Z,13.10
2019-04-26T06:46:28.573Z,13.20
2019-04-26T06:49:14.104Z,13.30
2019-04-26T06:51:46.702Z,13.50
2019-04-26T06:54:16.747Z,13.50
2019-04-26T06:56:47.766Z,13.40
2019-04-26T06:59:35.549Z,13.40
2019-04-26T07:01:57.938Z,13.40
2019-04-26T07:04:44.779Z,13.40
2019-04-26T07:07:30.637Z,13.30
2019-04-26T07:10:00.295Z,13.30
2019-04-26T07:12:34.198Z,13.40
2019-04-26T07:15:27.999Z,13.30
2019-04-26T07:17:46.724Z,13.30
2019-04-26T07:20:22.173Z,13.40
2019-04-26T07:23:09.518Z,13.40
2019-04-26T07:25:55.547Z,13.50
2019-04-26T07:28:24.992Z,13.60
2019-04-26T07:31:01.500Z,13.60
2019-04-26T07:33:37.807Z,13.70
2019-04-26T07:36:10.014Z,13.80
2019-04-26T07:38:51.575Z,13.90
2019-04-26T07:41:28.563Z,14.00
2019-04-26T07:43:59.582Z,14.10
2019-04-26T07:46:29.089Z,14.10
2019-04-26T07:49:01.694Z,13.90
2019-04-26T07:51:41.036Z,13.90
2019-04-26T07:54:19.250Z,13.90
2019-04-26T07:56:48.692Z,13.90
2019-04-26T07:59:18.067Z,13.90
2019-04-26T08:02:01.151Z,14.00
2019-04-26T08:04:34.323Z,14.00
2019-04-26T08:07:13.263Z,14.00
2019-04-26T08:09:42.675Z,13.90
2019-04-26T08:12:12.197Z,13.80
2019-04-26T08:14:43.348Z,13.70
2019-04-26T08:17:35.410Z,13.60
2019-04-26T08:20:09.042Z,13.80
2019-04-26T08:22:37.821Z,14.00
2019-04-26T08:25:08.255Z,14.00
2019-04-26T08:27:36.761Z,14.10
2019-04-26T08:30:12.839Z,14.10
2019-04-26T08:32:40.128Z,14.20
2019-04-26T08:35:16.116Z,14.20
2019-04-26T08:37:51.960Z,14.20
2019-04-26T08:40:28.261Z,14.00
2019-04-26T08:42:57.375Z,13.90
2019-04-26T08:45:30.902Z,13.80
2019-04-26T08:48:15.370Z,13.80
2019-04-26T08:50:47.909Z,13.70
2019-04-26T08:53:17.422Z,13.80
2019-04-26T08:55:46.487Z,13.80
2019-04-26T08:58:15.401Z,13.60
2019-04-26T09:00:46.557Z,13.70
2019-04-26T09:03:33.203Z,13.80
2019-04-26T09:06:14.975Z,13.80
2019-04-26T09:08:45.067Z,13.90
2019-04-26T09:11:25.638Z,13.90
2019-04-26T09:13:45.058Z,13.90
2019-04-26T09:16:14.353Z,13.90
2019-04-26T09:18:48.104Z,14.00
2019-04-26T09:21:17.016Z,13.90
2019-04-26T09:23:59.510Z,13.90
2019-04-26T09:26:37.763Z,13.90
2019-04-26T09:29:26.267Z,14.00
2019-04-26T09:32:14.406Z,13.90
2019-04-26T09:34:43.994Z,13.90
2019-04-26T09:37:12.430Z,13.80
2019-04-26T09:39:41.557Z,13.80
2019-04-26T09:42:11.687Z,13.80
2019-04-26T09:44:42.720Z,13.80
2019-04-26T09:47:30.701Z,13.70
2019-04-26T09:50:05.900Z,13.50
2019-04-26T09:52:41.206Z,13.40
2019-04-26T09:55:09.236Z,13.70
2019-04-26T09:57:37.240Z,13.90
2019-04-26T10:00:10.363Z,14.10
2019-04-26T10:02:36.294Z,14.10
2019-04-26T10:05:08.072Z,14.10
2019-04-26T10:07:37.431Z,14.40
2019-04-26T10:10:05.926Z,14.50
2019-04-26T10:12:35.530Z,14.80
2019-04-26T10:15:17.161Z,14.90
2019-04-26T10:17:46.460Z,14.70
2019-04-26T10:20:14.369Z,14.50
2019-04-26T10:22:42.278Z,14.40
2019-04-26T10:25:16.709Z,14.20
2019-04-26T10:27:40.900Z,14.20
2019-04-26T10:30:10.746Z,14.00
2019-04-26T10:32:38.691Z,14.10
2019-04-26T10:35:06.630Z,14.10
2019-04-26T10:37:39.513Z,13.90
2019-04-26T10:40:05.777Z,13.90
2019-04-26T10:42:33.714Z,13.90
2019-04-26T10:45:01.706Z,13.70
2019-04-26T10:47:29.636Z,13.50
2019-04-26T10:49:58.209Z,13.50
2019-04-26T10:52:31.662Z,13.40
2019-04-26T10:55:12.133Z,13.30
2019-04-26T10:57:40.886Z,13.30
2019-04-26T11:00:14.056Z,13.30
2019-04-26T11:02:40.643Z,13.20
2019-04-26T11:05:11.681Z,13.30
2019-04-26T11:07:38.099Z,13.20
2019-04-26T11:10:06.321Z,13.10
2019-04-26T11:12:34.266Z,12.90
2019-04-26T11:15:02.229Z,12.70
2019-04-26T11:17:30.134Z,12.50
2019-04-26T11:20:01.028Z,12.50
2019-04-26T11:22:29.679Z,12.50
2019-04-26T11:24:58.480Z,12.70
2019-04-26T11:27:26.433Z,12.80
2019-04-26T11:30:11.166Z,12.70
2019-04-26T11:32:33.118Z,12.50
2019-04-26T11:35:00.735Z,12.30
2019-04-26T11:37:28.650Z,12.10
2019-04-26T11:39:56.586Z,12.10
2019-04-26T11:42:24.533Z,12.00
2019-04-26T11:44:52.417Z,11.90
2019-04-26T11:47:20.369Z,11.70
2019-04-26T11:49:50.017Z,11.50
2019-04-26T11:52:17.801Z,11.50
2019-04-26T11:54:45.646Z,11.60
2019-04-26T11:57:13.658Z,11.50
2019-04-26T11:59:41.589Z,11.50
2019-04-26T12:02:12.204Z,11.40
2019-04-26T12:04:53.611Z,11.50
2019-04-26T12:07:27.033Z,11.50
2019-04-26T12:10:16.804Z,11.50
2019-04-26T12:12:47.117Z,11.70
2019-04-26T12:15:14.826Z,11.70
2019-04-26T12:17:42.801Z,11.90
2019-04-26T12:20:10.739Z,11.80
2019-04-26T12:22:39.477Z,11.70
2019-04-26T12:25:08.495Z,11.90
2019-04-26T12:27:36.448Z,11.90
2019-04-26T12:30:05.890Z,12.10
2019-04-26T12:32:33.838Z,12.00
2019-04-26T12:35:01.744Z,12.00
2019-04-26T12:37:29.668Z,12.10
2019-04-26T12:39:57.616Z,12.00
2019-04-26T12:42:25.442Z,12.00
2019-04-26T12:44:57.947Z,12.10
2019-04-26T12:47:27.484Z,12.20
2019-04-26T12:49:58.946Z,12.30
2019-04-26T12:52:24.867Z,12.30
2019-04-26T12:54:52.800Z,12.30
2019-04-26T12:57:20.738Z,12.20
2019-04-26T12:59:48.597Z,12.20
2019-04-26T13:02:20.385Z,12.10
2019-04-26T13:04:46.118Z,12.10
2019-04-26T13:07:23.447Z,11.90
2019-04-26T13:10:02.238Z,12.00
2019-04-26T13:12:34.413Z,12.00
2019-04-26T13:15:21.836Z,12.00
2019-04-26T13:17:51.480Z,12.10
2019-04-26T13:20:19.431Z,12.00
2019-04-26T13:22:50.201Z,12.00
2019-04-26T13:25:26.189Z,11.90
2019-04-26T13:27:47.647Z,11.80
2019-04-26T13:30:15.559Z,11.80
2019-04-26T13:32:43.499Z,11.90
2019-04-26T13:35:12.969Z,12.00
2019-04-26T13:37:40.995Z,12.00
2019-04-26T13:40:08.893Z,11.90
2019-04-26T13:42:36.828Z,11.90
2019-04-26T13:45:22.322Z,12.00
2019-04-26T13:48:07.690Z,12.00
2019-04-26T13:50:37.234Z,12.00
2019-04-26T13:53:05.188Z,11.90
2019-04-26T13:55:33.865Z,11.80
2019-04-26T13:58:01.915Z,11.70
2019-04-26T14:00:31.189Z,11.70
2019-04-26T14:02:59.093Z,11.80
2019-04-26T14:05:28.016Z,11.80
2019-04-26T14:07:55.863Z,11.90
2019-04-26T14:10:23.822Z,11.90
2019-04-26T14:12:51.763Z,12.00
2019-04-26T14:15:19.715Z,12.10
2019-04-26T14:17:47.629Z,12.00
2019-04-26T14:20:19.288Z,12.00
2019-04-26T14:22:56.400Z,12.00
2019-04-26T14:25:27.000Z,12.00
2019-04-26T14:27:54.982Z,12.00
2019-04-26T14:30:23.003Z,11.90
2019-04-26T14:32:53.304Z,11.90
2019-04-26T14:35:20.383Z,11.90
2019-04-26T14:37:49.812Z,11.80
2019-04-26T14:40:18.003Z,11.90
2019-04-26T14:42:48.453Z,11.90
2019-04-26T14:45:23.437Z,11.90
2019-04-26T14:47:47.421Z,12.00
2019-04-26T14:50:14.861Z,12.00
2019-04-26T14:52:42.791Z,12.00
2019-04-26T14:55:10.703Z,12.00
2019-04-26T14:57:38.759Z,12.00
2019-04-26T15:00:08.147Z,12.00
2019-04-26T15:02:43.062Z,12.10
2019-04-26T15:05:22.233Z,12.10
2019-04-26T15:07:53.263Z,12.10
2019-04-26T15:10:21.393Z,12.10
2019-04-26T15:12:58.306Z,12.10
2019-04-26T15:15:18.915Z,12.10
2019-04-26T15:17:46.855Z,12.00
2019-04-26T15:20:16.680Z,12.00
2019-04-26T15:22:48.723Z,12.00
2019-04-26T15:25:13.882Z,12.10
2019-04-26T15:27:42.105Z,12.00
2019-04-26T15:30:11.380Z,12.00
2019-04-26T15:32:39.234Z,12.00
2019-04-26T15:35:07.148Z,12.00
2019-04-26T15:37:35.159Z,12.00
2019-04-26T15:40:04.729Z,12.00
2019-04-26T15:42:37.243Z,12.00
2019-04-26T15:45:25.285Z,12.00
2019-04-26T15:47:57.928Z,12.00
2019-04-26T15:50:33.403Z,12.00
2019-04-26T15:53:02.494Z,12.00
2019-04-26T15:55:33.881Z,12.00
2019-04-26T15:58:02.717Z,12.10
2019-04-26T16:00:32.772Z,12.00
2019-04-26T16:03:03.772Z,12.00
2019-04-26T16:05:29.713Z,12.00
2019-04-26T16:08:01.837Z,12.10
2019-04-26T16:10:29.568Z,12.20
2019-04-26T16:13:01.266Z,12.20
2019-04-26T16:15:27.258Z,12.10
2019-04-26T16:17:55.170Z,12.10
2019-04-26T16:20:23.029Z,12.10
2019-04-26T16:22:50.919Z,12.00
2019-04-26T16:25:18.849Z,12.00
2019-04-26T16:27:46.782Z,12.00
2019-04-26T16:30:16.425Z,12.10
2019-04-26T16:33:01.100Z,12.10
2019-04-26T16:35:31.931Z,12.10
2019-04-26T16:38:06.681Z,12.10
2019-04-26T16:40:32.596Z,12.10
2019-04-26T16:43:00.593Z,12.10
2019-04-26T16:45:28.503Z,12.20
2019-04-26T16:47:56.554Z,12.20
2019-04-26T16:50:31.465Z,12.20
2019-04-26T16:52:53.965Z,12.30
2019-04-26T16:55:24.247Z,12.30
2019-04-26T16:57:55.735Z,12.30
2019-04-26T17:00:31.789Z,12.30
2019-04-26T17:02:52.629Z,12.30
2019-04-26T17:05:44.040Z,12.30
2019-04-26T17:07:49.685Z,12.20
2019-04-26T17:10:20.747Z,12.20
2019-04-26T17:12:50.616Z,12.20
2019-04-26T17:15:17.563Z,12.20
2019-04-26T17:17:50.157Z,12.10
2019-04-26T17:20:15.923Z,14.00
2019-04-26T17:23:00.858Z,12.00
2019-04-26T17:25:28.482Z,12.00
2019-04-26T17:27:56.418Z,12.00
2019-04-26T17:30:25.308Z,12.00
2019-04-26T17:32:55.305Z,12.00
2019-04-26T17:35:25.241Z,11.90
2019-04-26T17:37:52.991Z,11.90
2019-04-26T17:40:25.137Z,11.90
2019-04-26T17:42:51.173Z,11.90
2019-04-26T17:45:19.169Z,11.90
2019-04-26T17:47:47.002Z,11.90
2019-04-26T17:50:14.950Z,11.90
2019-04-26T17:52:44.212Z,11.90
2019-04-26T17:55:14.912Z,11.90
2019-04-26T17:57:48.245Z,11.90
2019-04-26T18:00:15.408Z,11.90
2019-04-26T18:02:47.782Z,11.90
2019-04-26T18:05:13.031Z,11.90
2019-04-26T18:07:46.034Z,11.90
2019-04-26T18:10:10.630Z,11.90
2019-04-26T18:12:40.857Z,11.90
2019-04-26T18:15:10.377Z,11.90
2019-04-26T18:17:40.403Z,11.80
2019-04-26T18:20:23.497Z,11.80
2019-04-26T18:23:05.542Z,11.80
2019-04-26T18:25:34.665Z,11.80
2019-04-26T18:28:04.495Z,11.80
2019-04-26T18:30:32.978Z,11.70
2019-04-26T18:33:01.005Z,11.70
2019-04-26T18:35:28.960Z,11.70
2019-04-26T18:37:56.902Z,11.70
2019-04-26T18:40:24.812Z,11.70
2019-04-26T18:42:53.086Z,11.60
2019-04-26T18:45:28.794Z,11.60
2019-04-26T18:47:54.839Z,11.60
2019-04-26T18:50:21.324Z,11.60
2019-04-26T18:52:56.482Z,11.60
2019-04-26T18:55:29.290Z,11.50
2019-04-26T18:58:01.514Z,11.50
2019-04-26T19:00:29.365Z,11.50
2019-04-26T19:02:59.931Z,11.50
2019-04-26T19:05:29.765Z,11.50
2019-04-26T19:07:56.547Z,11.50
2019-04-26T19:10:25.832Z,11.50
2019-04-26T19:12:56.422Z,11.50
2019-04-26T19:15:26.216Z,11.50
2019-04-26T19:18:05.465Z,11.50
2019-04-26T19:20:53.109Z,11.50
2019-04-26T19:23:24.425Z,11.40
2019-04-26T19:25:51.993Z,11.40
2019-04-26T19:28:20.026Z,12.10
2019-04-26T19:30:51.003Z,11.30
2019-04-26T19:33:18.566Z,11.30
2019-04-26T19:35:47.526Z,11.30
2019-04-26T19:38:15.876Z,11.20
2019-04-26T19:40:47.610Z,11.20
2019-04-26T19:43:13.571Z,11.20
2019-04-26T19:45:52.627Z,11.20
2019-04-26T19:48:22.973Z,11.20
2019-04-26T19:51:11.419Z,11.20
2019-04-26T19:53:51.690Z,11.20
2019-04-26T19:56:24.628Z,11.10
2019-04-26T19:58:57.574Z,11.10
2019-04-26T20:01:24.812Z,11.10
2019-04-26T20:03:55.061Z,11.10
2019-04-26T20:06:20.789Z,11.10
2019-04-26T20:08:49.680Z,11.10
2019-04-26T20:11:19.053Z,11.00
2019-04-26T20:13:51.910Z,11.00
2019-04-26T20:16:17.434Z,11.00
2019-04-26T20:18:45.714Z,11.00
2019-04-26T20:21:15.491Z,11.00
2019-04-26T20:23:47.238Z,11.00
2019-04-26T20:26:13.412Z,11.00
2019-04-26T20:28:42.273Z,11.00
2019-04-26T20:31:14.703Z,11.00
2019-04-26T20:33:42.782Z,11.00
2019-04-26T20:36:10.712Z,11.00
2019-04-26T20:38:43.821Z,11.00
2019-04-26T20:41:08.329Z,11.00
2019-04-26T20:43:42.117Z,10.90
2019-04-26T20:46:14.091Z,10.90
2019-04-26T20:48:36.749Z,10.80
2019-04-26T20:51:06.584Z,10.90
2019-04-26T20:53:39.958Z,10.80
2019-04-26T20:56:09.378Z,10.80
2019-04-26T20:58:33.421Z,10.80
2019-04-26T21:01:01.719Z,10.80
2019-04-26T21:03:29.643Z,10.70
2019-04-26T21:05:59.135Z,10.70
2019-04-26T21:08:27.533Z,10.70
2019-04-26T21:10:56.045Z,10.70
2019-04-26T21:13:30.533Z,10.70
2019-04-26T21:15:58.258Z,10.70
2019-04-26T21:18:24.222Z,10.70
2019-04-26T21:20:52.203Z,10.60
2019-04-26T21:23:22.153Z,10.60
2019-04-26T21:26:07.071Z,10.60
2019-04-26T21:28:42.648Z,10.60
2019-04-26T21:31:11.360Z,10.60
2019-04-26T21:33:40.874Z,10.50
2019-04-26T21:36:13.685Z,10.50
2019-04-26T21:38:43.928Z,10.50
2019-04-26T21:41:28.495Z,10.50
2019-04-26T21:43:56.451Z,10.40
2019-04-26T21:46:24.297Z,10.50
2019-04-26T21:48:53.879Z,10.40
2019-04-26T21:51:23.007Z,10.40
2019-04-26T21:53:52.942Z,10.50
2019-04-26T21:56:23.310Z,10.50
2019-04-26T21:58:53.273Z,10.50
2019-04-26T22:01:24.848Z,10.50
2019-04-26T22:03:55.518Z,10.50
2019-04-26T22:06:25.075Z,10.50
2019-04-26T22:08:59.405Z,10.50
2019-04-26T22:11:29.089Z,10.50
2019-04-26T22:14:19.935Z,10.50
2019-04-26T22:16:57.647Z,10.50
2019-04-26T22:19:27.980Z,10.40
2019-04-26T22:22:04.227Z,10.40
2019-04-26T22:24:36.450Z,10.40
2019-04-26T22:27:05.261Z,10.40
2019-04-26T22:29:34.252Z,10.40
2019-04-26T22:32:03.719Z,10.40
2019-04-26T22:34:32.569Z,10.40
2019-04-26T22:37:09.856Z,10.40
2019-04-26T22:39:39.615Z,10.40
2019-04-26T22:42:03.861Z,10.40
2019-04-26T22:44:34.609Z,10.40
2019-04-26T22:47:21.113Z,10.40
2019-04-26T22:49:49.985Z,10.40
2019-04-26T22:52:18.742Z,10.40
2019-04-26T22:54:47.476Z,10.40
2019-04-26T22:57:16.630Z,10.40
2019-04-26T22:59:49.880Z,10.40
2019-04-26T23:02:18.277Z,10.40
2019-04-26T23:04:47.522Z,10.30
2019-04-26T23:07:18.532Z,10.30
2019-04-26T23:09:51.897Z,10.30
2019-04-26T23:12:25.099Z,10.30
2019-04-26T23:14:55.260Z,10.30
2019-04-26T23:17:43.983Z,10.30
2019-04-26T23:20:20.339Z,10.30
2019-04-26T23:22:49.089Z,10.30
2019-04-26T23:25:17.887Z,10.20
2019-04-26T23:27:46.639Z,10.20
2019-04-26T23:30:16.202Z,10.20
2019-04-26T23:32:48.520Z,10.10
2019-04-26T23:35:15.328Z,10.10
2019-04-26T23:37:44.051Z,10.00
2019-04-26T23:40:12.929Z,10.00
2019-04-26T23:42:43.473Z,10.00
2019-04-26T23:45:14.065Z,10.00
2019-04-26T23:47:43.833Z,9.90
2019-04-26T23:50:14.069Z,9.90
2019-04-26T23:52:43.655Z,9.90
2019-04-26T23:55:13.472Z,9.80
2019-04-26T23:57:43.490Z,9.80
